sensor_id;sensor_type;location;lat;lon;timestamp;temperature;humidity
22418;DHT22;11376;50.932;4.442;2024-03-08T00:02:00;5.20;99.90
22418;DHT22;11376;50.932;4.442;2024-03-08T00:04:26;5.10;99.90
22418;DHT22;11376;50.932;4.442;2024-03-08T00:06:51;5.10;99.90
22418;DHT22;11376;50.932;4.442;2024-03-08T00:09:17;5.00;99.90
22418;DHT22;11376;50.932;4.442;2024-03-08T00:11:43;5.10;99.90
22418;DHT22;11376;50.932;4.442;2024-03-08T00:14:09;5.10;99.90
22418;DHT22;11376;50.932;4.442;2024-03-08T00:16:35;5.00;99.90
22418;DHT22;11376;50.932;4.442;2024-03-08T00:19:01;5.00;99.90
22418;DHT22;11376;50.932;4.442;2024-03-08T00:21:27;5.00;99.90
22418;DHT22;11376;50.932;4.442;2024-03-08T00:23:53;5.00;99.90
22418;DHT22;11376;50.932;4.442;2024-03-08T00:26:22;5.00;99.90
22418;DHT22;11376;50.932;4.442;2024-03-08T00:28:48;5.00;99.90
22418;DHT22;11376;50.932;4.442;2024-03-08T00:31:14;5.00;99.90
22418;DHT22;11376;50.932;4.442;2024-03-08T00:33:42;5.10;99.90
22418;DHT22;11376;50.932;4.442;2024-03-08T00:36:08;5.10;99.90
22418;DHT22;11376;50.932;4.442;2024-03-08T00:38:34;5.10;99.90
22418;DHT22;11376;50.932;4.442;2024-03-08T00:41:00;5.00;99.90
22418;DHT22;11376;50.932;4.442;2024-03-08T00:43:26;5.00;99.90
22418;DHT22;11376;50.932;4.442;2024-03-08T00:45:51;5.00;99.90
22418;DHT22;11376;50.932;4.442;2024-03-08T00:48:17;4.90;99.90
22418;DHT22;11376;50.932;4.442;2024-03-08T00:50:43;4.90;99.90
22418;DHT22;11376;50.932;4.442;2024-03-08T00:53:11;4.80;99.90
22418;DHT22;11376;50.932;4.442;2024-03-08T00:55:37;4.80;99.90
22418;DHT22;11376;50.932;4.442;2024-03-08T00:58:04;4.80;99.90
22418;DHT22;11376;50.932;4.442;2024-03-08T01:00:30;4.80;99.90
22418;DHT22;11376;50.932;4.442;2024-03-08T01:02:56;4.80;99.90
22418;DHT22;11376;50.932;4.442;2024-03-08T01:05:22;4.90;99.90
22418;DHT22;11376;50.932;4.442;2024-03-08T01:07:50;4.80;99.90
22418;DHT22;11376;50.932;4.442;2024-03-08T01:10:16;4.80;99.90
22418;DHT22;11376;50.932;4.442;2024-03-08T01:12:41;4.70;99.90
22418;DHT22;11376;50.932;4.442;2024-03-08T01:15:09;4.70;99.90
22418;DHT22;11376;50.932;4.442;2024-03-08T01:17:36;4.70;99.90
22418;DHT22;11376;50.932;4.442;2024-03-08T01:20:03;4.70;99.90
22418;DHT22;11376;50.932;4.442;2024-03-08T01:22:29;4.80;99.90
22418;DHT22;11376;50.932;4.442;2024-03-08T01:24:56;4.90;99.90
22418;DHT22;11376;50.932;4.442;2024-03-08T01:27:22;4.80;99.90
22418;DHT22;11376;50.932;4.442;2024-03-08T01:29:47;4.70;99.90
22418;DHT22;11376;50.932;4.442;2024-03-08T01:32:13;4.70;99.90
22418;DHT22;11376;50.932;4.442;2024-03-08T01:34:40;4.70;99.90
22418;DHT22;11376;50.932;4.442;2024-03-08T01:37:06;4.60;99.90
22418;DHT22;11376;50.932;4.442;2024-03-08T01:39:32;4.60;99.90
22418;DHT22;11376;50.932;4.442;2024-03-08T01:41:58;4.60;99.90
22418;DHT22;11376;50.932;4.442;2024-03-08T01:44:24;4.60;99.90
22418;DHT22;11376;50.932;4.442;2024-03-08T01:46:50;4.70;99.90
22418;DHT22;11376;50.932;4.442;2024-03-08T01:49:18;4.60;99.90
22418;DHT22;11376;50.932;4.442;2024-03-08T01:51:46;4.60;99.90
22418;DHT22;11376;50.932;4.442;2024-03-08T01:54:12;4.60;99.90
22418;DHT22;11376;50.932;4.442;2024-03-08T01:56:40;4.60;99.90
22418;DHT22;11376;50.932;4.442;2024-03-08T01:59:06;4.50;99.90
22418;DHT22;11376;50.932;4.442;2024-03-08T02:01:33;4.40;99.90
22418;DHT22;11376;50.932;4.442;2024-03-08T02:03:59;4.40;99.90
22418;DHT22;11376;50.932;4.442;2024-03-08T02:06:25;4.40;99.90
22418;DHT22;11376;50.932;4.442;2024-03-08T02:08:51;4.50;99.90
22418;DHT22;11376;50.932;4.442;2024-03-08T02:11:18;4.50;99.90
22418;DHT22;11376;50.932;4.442;2024-03-08T02:13:46;4.50;99.90
22418;DHT22;11376;50.932;4.442;2024-03-08T02:16:12;4.50;99.90
22418;DHT22;11376;50.932;4.442;2024-03-08T02:18:38;4.50;99.90
22418;DHT22;11376;50.932;4.442;2024-03-08T02:21:05;4.40;99.90
22418;DHT22;11376;50.932;4.442;2024-03-08T02:23:32;4.30;99.90
22418;DHT22;11376;50.932;4.442;2024-03-08T02:25:59;4.40;99.90
22418;DHT22;11376;50.932;4.442;2024-03-08T02:28:25;4.40;99.90
22418;DHT22;11376;50.932;4.442;2024-03-08T02:30:51;4.40;99.90
22418;DHT22;11376;50.932;4.442;2024-03-08T02:33:20;4.40;99.90
22418;DHT22;11376;50.932;4.442;2024-03-08T02:35:46;4.40;99.90
22418;DHT22;11376;50.932;4.442;2024-03-08T02:38:21;4.40;99.90
22418;DHT22;11376;50.932;4.442;2024-03-08T02:40:48;4.30;99.90
22418;DHT22;11376;50.932;4.442;2024-03-08T02:43:15;4.30;99.90
22418;DHT22;11376;50.932;4.442;2024-03-08T02:45:41;4.20;99.90
22418;DHT22;11376;50.932;4.442;2024-03-08T02:48:08;4.20;99.90
22418;DHT22;11376;50.932;4.442;2024-03-08T02:50:34;4.30;99.90
22418;DHT22;11376;50.932;4.442;2024-03-08T02:53:00;4.20;99.90
22418;DHT22;11376;50.932;4.442;2024-03-08T02:55:26;4.20;99.90
22418;DHT22;11376;50.932;4.442;2024-03-08T02:57:53;4.10;99.90
22418;DHT22;11376;50.932;4.442;2024-03-08T03:00:22;4.10;99.90
22418;DHT22;11376;50.932;4.442;2024-03-08T03:02:53;4.10;99.90
22418;DHT22;11376;50.932;4.442;2024-03-08T03:05:22;4.10;99.90
22418;DHT22;11376;50.932;4.442;2024-03-08T03:07:49;4.10;99.90
22418;DHT22;11376;50.932;4.442;2024-03-08T03:10:16;4.10;99.90
22418;DHT22;11376;50.932;4.442;2024-03-08T03:12:43;4.00;99.90
22418;DHT22;11376;50.932;4.442;2024-03-08T03:15:10;4.00;99.90
22418;DHT22;11376;50.932;4.442;2024-03-08T03:17:37;4.00;99.90
22418;DHT22;11376;50.932;4.442;2024-03-08T03:20:06;4.00;99.90
22418;DHT22;11376;50.932;4.442;2024-03-08T03:22:38;3.90;99.90
22418;DHT22;11376;50.932;4.442;2024-03-08T03:25:04;4.00;99.90
22418;DHT22;11376;50.932;4.442;2024-03-08T03:27:32;4.00;99.90
22418;DHT22;11376;50.932;4.442;2024-03-08T03:29:58;4.00;99.90
22418;DHT22;11376;50.932;4.442;2024-03-08T03:32:24;3.90;99.90
22418;DHT22;11376;50.932;4.442;2024-03-08T03:34:50;3.90;99.90
22418;DHT22;11376;50.932;4.442;2024-03-08T03:37:21;3.90;99.90
22418;DHT22;11376;50.932;4.442;2024-03-08T03:39:47;3.80;99.90
22418;DHT22;11376;50.932;4.442;2024-03-08T03:42:19;3.80;99.90
22418;DHT22;11376;50.932;4.442;2024-03-08T03:44:48;3.80;99.90
22418;DHT22;11376;50.932;4.442;2024-03-08T03:47:15;3.80;99.90
22418;DHT22;11376;50.932;4.442;2024-03-08T03:49:41;3.80;99.90
22418;DHT22;11376;50.932;4.442;2024-03-08T03:52:08;3.70;99.90
22418;DHT22;11376;50.932;4.442;2024-03-08T03:54:34;3.70;99.90
22418;DHT22;11376;50.932;4.442;2024-03-08T03:57:00;3.60;99.90
22418;DHT22;11376;50.932;4.442;2024-03-08T03:59:26;3.60;99.90
22418;DHT22;11376;50.932;4.442;2024-03-08T04:01:53;3.60;99.90
22418;DHT22;11376;50.932;4.442;2024-03-08T04:04:20;3.60;99.90
22418;DHT22;11376;50.932;4.442;2024-03-08T04:06:46;3.60;99.90
22418;DHT22;11376;50.932;4.442;2024-03-08T04:09:12;3.70;99.90
22418;DHT22;11376;50.932;4.442;2024-03-08T04:11:38;3.60;99.90
22418;DHT22;11376;50.932;4.442;2024-03-08T04:14:04;3.60;99.90
22418;DHT22;11376;50.932;4.442;2024-03-08T04:16:31;3.60;99.90
22418;DHT22;11376;50.932;4.442;2024-03-08T04:18:57;3.60;99.90
22418;DHT22;11376;50.932;4.442;2024-03-08T04:21:23;3.60;99.90
22418;DHT22;11376;50.932;4.442;2024-03-08T04:23:49;3.60;99.90
22418;DHT22;11376;50.932;4.442;2024-03-08T04:26:15;3.50;99.90
22418;DHT22;11376;50.932;4.442;2024-03-08T04:28:40;3.50;99.90
22418;DHT22;11376;50.932;4.442;2024-03-08T04:31:06;3.60;99.90
22418;DHT22;11376;50.932;4.442;2024-03-08T04:33:32;3.60;99.90
22418;DHT22;11376;50.932;4.442;2024-03-08T04:36:01;3.60;99.90
22418;DHT22;11376;50.932;4.442;2024-03-08T04:38:26;3.50;99.90
22418;DHT22;11376;50.932;4.442;2024-03-08T04:40:52;3.40;99.90
22418;DHT22;11376;50.932;4.442;2024-03-08T04:43:19;3.40;99.90
22418;DHT22;11376;50.932;4.442;2024-03-08T04:45:46;3.50;99.90
22418;DHT22;11376;50.932;4.442;2024-03-08T04:48:12;3.60;99.90
22418;DHT22;11376;50.932;4.442;2024-03-08T04:50:37;3.50;99.90
22418;DHT22;11376;50.932;4.442;2024-03-08T04:53:04;3.40;99.90
22418;DHT22;11376;50.932;4.442;2024-03-08T04:55:34;3.40;99.90
22418;DHT22;11376;50.932;4.442;2024-03-08T04:58:00;3.30;99.90
22418;DHT22;11376;50.932;4.442;2024-03-08T05:00:25;3.30;99.90
22418;DHT22;11376;50.932;4.442;2024-03-08T05:02:51;3.30;99.90
22418;DHT22;11376;50.932;4.442;2024-03-08T05:05:18;3.20;99.90
22418;DHT22;11376;50.932;4.442;2024-03-08T05:07:44;3.20;99.90
22418;DHT22;11376;50.932;4.442;2024-03-08T05:10:11;3.20;99.90
22418;DHT22;11376;50.932;4.442;2024-03-08T05:12:37;3.30;99.90
22418;DHT22;11376;50.932;4.442;2024-03-08T05:15:06;3.30;99.90
22418;DHT22;11376;50.932;4.442;2024-03-08T05:17:32;3.30;99.90
22418;DHT22;11376;50.932;4.442;2024-03-08T05:19:58;3.30;99.90
22418;DHT22;11376;50.932;4.442;2024-03-08T05:22:24;3.20;99.90
22418;DHT22;11376;50.932;4.442;2024-03-08T05:24:51;3.20;99.90
22418;DHT22;11376;50.932;4.442;2024-03-08T05:27:17;3.20;99.90
22418;DHT22;11376;50.932;4.442;2024-03-08T05:29:42;3.20;99.90
22418;DHT22;11376;50.932;4.442;2024-03-08T05:32:08;3.20;99.90
22418;DHT22;11376;50.932;4.442;2024-03-08T05:34:35;3.10;99.90
22418;DHT22;11376;50.932;4.442;2024-03-08T05:37:01;3.10;99.90
22418;DHT22;11376;50.932;4.442;2024-03-08T05:39:27;3.10;99.90
22418;DHT22;11376;50.932;4.442;2024-03-08T05:41:53;3.10;99.90
22418;DHT22;11376;50.932;4.442;2024-03-08T05:44:20;3.20;99.90
22418;DHT22;11376;50.932;4.442;2024-03-08T05:46:46;3.20;99.90
22418;DHT22;11376;50.932;4.442;2024-03-08T05:49:12;3.20;99.90
22418;DHT22;11376;50.932;4.442;2024-03-08T05:51:39;3.10;99.90
22418;DHT22;11376;50.932;4.442;2024-03-08T05:54:07;3.10;99.90
22418;DHT22;11376;50.932;4.442;2024-03-08T05:56:36;3.10;99.90
22418;DHT22;11376;50.932;4.442;2024-03-08T05:59:02;3.10;99.90
22418;DHT22;11376;50.932;4.442;2024-03-08T06:01:29;3.10;99.90
22418;DHT22;11376;50.932;4.442;2024-03-08T06:03:55;3.20;99.90
22418;DHT22;11376;50.932;4.442;2024-03-08T06:06:23;3.20;99.90
22418;DHT22;11376;50.932;4.442;2024-03-08T06:08:49;3.10;99.90
22418;DHT22;11376;50.932;4.442;2024-03-08T06:11:15;3.00;99.90
22418;DHT22;11376;50.932;4.442;2024-03-08T06:13:44;3.10;99.90
22418;DHT22;11376;50.932;4.442;2024-03-08T06:16:09;3.00;99.90
22418;DHT22;11376;50.932;4.442;2024-03-08T06:18:36;3.10;99.90
22418;DHT22;11376;50.932;4.442;2024-03-08T06:21:08;3.00;99.90
22418;DHT22;11376;50.932;4.442;2024-03-08T06:23:41;3.10;99.90
22418;DHT22;11376;50.932;4.442;2024-03-08T06:26:07;3.10;99.90
22418;DHT22;11376;50.932;4.442;2024-03-08T06:28:33;3.20;99.90
22418;DHT22;11376;50.932;4.442;2024-03-08T06:31:00;3.20;99.90
22418;DHT22;11376;50.932;4.442;2024-03-08T06:33:26;3.10;99.90
22418;DHT22;11376;50.932;4.442;2024-03-08T06:35:53;3.10;99.90
22418;DHT22;11376;50.932;4.442;2024-03-08T06:38:20;3.10;99.90
22418;DHT22;11376;50.932;4.442;2024-03-08T06:40:46;3.10;99.90
22418;DHT22;11376;50.932;4.442;2024-03-08T06:43:14;3.20;99.90
22418;DHT22;11376;50.932;4.442;2024-03-08T06:45:43;3.20;99.90
22418;DHT22;11376;50.932;4.442;2024-03-08T06:48:15;3.20;99.90
22418;DHT22;11376;50.932;4.442;2024-03-08T06:50:45;3.20;99.90
22418;DHT22;11376;50.932;4.442;2024-03-08T06:53:11;3.30;99.90
22418;DHT22;11376;50.932;4.442;2024-03-08T06:55:37;3.30;99.90
22418;DHT22;11376;50.932;4.442;2024-03-08T06:58:04;3.30;99.90
22418;DHT22;11376;50.932;4.442;2024-03-08T07:00:29;3.30;99.90
22418;DHT22;11376;50.932;4.442;2024-03-08T07:02:59;3.40;99.90
22418;DHT22;11376;50.932;4.442;2024-03-08T07:05:27;3.40;99.90
22418;DHT22;11376;50.932;4.442;2024-03-08T07:07:53;3.40;99.90
22418;DHT22;11376;50.932;4.442;2024-03-08T07:10:21;3.50;99.90
22418;DHT22;11376;50.932;4.442;2024-03-08T07:12:50;3.50;99.90
22418;DHT22;11376;50.932;4.442;2024-03-08T07:15:16;3.60;99.90
22418;DHT22;11376;50.932;4.442;2024-03-08T07:17:48;3.60;99.90
22418;DHT22;11376;50.932;4.442;2024-03-08T07:20:14;3.70;99.90
22418;DHT22;11376;50.932;4.442;2024-03-08T07:22:41;3.80;99.90
22418;DHT22;11376;50.932;4.442;2024-03-08T07:25:09;3.80;99.90
22418;DHT22;11376;50.932;4.442;2024-03-08T07:27:51;4.00;99.90
22418;DHT22;11376;50.932;4.442;2024-03-08T07:30:17;3.90;99.90
22418;DHT22;11376;50.932;4.442;2024-03-08T07:33:08;3.90;99.90
22418;DHT22;11376;50.932;4.442;2024-03-08T07:35:38;4.00;99.90
22418;DHT22;11376;50.932;4.442;2024-03-08T07:38:04;4.10;99.90
22418;DHT22;11376;50.932;4.442;2024-03-08T07:40:31;4.10;99.90
22418;DHT22;11376;50.932;4.442;2024-03-08T07:42:58;4.30;99.90
22418;DHT22;11376;50.932;4.442;2024-03-08T07:45:24;4.40;99.90
22418;DHT22;11376;50.932;4.442;2024-03-08T07:47:49;4.40;99.90
22418;DHT22;11376;50.932;4.442;2024-03-08T07:50:16;4.60;99.90
22418;DHT22;11376;50.932;4.442;2024-03-08T07:52:42;4.70;99.90
22418;DHT22;11376;50.932;4.442;2024-03-08T07:55:09;4.80;99.90
22418;DHT22;11376;50.932;4.442;2024-03-08T07:57:35;4.90;99.90
22418;DHT22;11376;50.932;4.442;2024-03-08T08:00:05;4.90;99.90
22418;DHT22;11376;50.932;4.442;2024-03-08T08:02:33;5.00;99.90
22418;DHT22;11376;50.932;4.442;2024-03-08T08:04:59;5.10;99.90
22418;DHT22;11376;50.932;4.442;2024-03-08T08:07:25;5.20;99.90
22418;DHT22;11376;50.932;4.442;2024-03-08T08:09:53;5.20;99.90
22418;DHT22;11376;50.932;4.442;2024-03-08T08:12:18;5.30;99.90
22418;DHT22;11376;50.932;4.442;2024-03-08T08:14:44;5.30;99.90
22418;DHT22;11376;50.932;4.442;2024-03-08T08:17:10;5.30;99.90
22418;DHT22;11376;50.932;4.442;2024-03-08T08:19:37;5.50;99.90
22418;DHT22;11376;50.932;4.442;2024-03-08T08:22:04;5.60;99.90
22418;DHT22;11376;50.932;4.442;2024-03-08T08:24:30;5.70;99.90
22418;DHT22;11376;50.932;4.442;2024-03-08T08:26:56;5.80;99.90
22418;DHT22;11376;50.932;4.442;2024-03-08T08:29:22;5.80;99.90
22418;DHT22;11376;50.932;4.442;2024-03-08T08:31:48;5.90;99.90
22418;DHT22;11376;50.932;4.442;2024-03-08T08:34:16;6.10;99.90
22418;DHT22;11376;50.932;4.442;2024-03-08T08:36:44;6.10;99.90
22418;DHT22;11376;50.932;4.442;2024-03-08T08:39:10;6.20;99.90
22418;DHT22;11376;50.932;4.442;2024-03-08T08:41:41;6.40;99.90
22418;DHT22;11376;50.932;4.442;2024-03-08T08:44:07;6.60;99.90
22418;DHT22;11376;50.932;4.442;2024-03-08T08:46:38;6.60;99.90
22418;DHT22;11376;50.932;4.442;2024-03-08T08:49:04;6.60;99.90
22418;DHT22;11376;50.932;4.442;2024-03-08T08:51:31;6.70;99.90
22418;DHT22;11376;50.932;4.442;2024-03-08T08:53:59;6.80;99.90
22418;DHT22;11376;50.932;4.442;2024-03-08T08:56:25;6.90;99.90
22418;DHT22;11376;50.932;4.442;2024-03-08T08:58:51;7.10;99.90
22418;DHT22;11376;50.932;4.442;2024-03-08T09:01:19;7.10;99.90
22418;DHT22;11376;50.932;4.442;2024-03-08T09:03:45;7.30;99.90
22418;DHT22;11376;50.932;4.442;2024-03-08T09:06:12;7.50;99.90
22418;DHT22;11376;50.932;4.442;2024-03-08T09:08:39;7.50;99.90
22418;DHT22;11376;50.932;4.442;2024-03-08T09:11:05;7.50;99.90
22418;DHT22;11376;50.932;4.442;2024-03-08T09:13:31;7.60;99.90
22418;DHT22;11376;50.932;4.442;2024-03-08T09:15:57;7.70;99.90
22418;DHT22;11376;50.932;4.442;2024-03-08T09:18:23;7.80;99.90
22418;DHT22;11376;50.932;4.442;2024-03-08T09:20:49;7.90;99.90
22418;DHT22;11376;50.932;4.442;2024-03-08T09:23:19;7.90;99.90
22418;DHT22;11376;50.932;4.442;2024-03-08T09:25:45;8.00;99.90
22418;DHT22;11376;50.932;4.442;2024-03-08T09:28:12;8.10;99.90
22418;DHT22;11376;50.932;4.442;2024-03-08T09:30:38;8.20;99.90
22418;DHT22;11376;50.932;4.442;2024-03-08T09:33:05;8.30;99.90
22418;DHT22;11376;50.932;4.442;2024-03-08T09:35:31;8.40;99.90
22418;DHT22;11376;50.932;4.442;2024-03-08T09:37:57;8.50;99.90
22418;DHT22;11376;50.932;4.442;2024-03-08T09:40:23;8.50;99.90
22418;DHT22;11376;50.932;4.442;2024-03-08T09:42:51;8.40;99.90
22418;DHT22;11376;50.932;4.442;2024-03-08T09:45:20;8.50;99.90
22418;DHT22;11376;50.932;4.442;2024-03-08T09:47:47;8.60;99.90
22418;DHT22;11376;50.932;4.442;2024-03-08T09:50:14;8.80;99.90
22418;DHT22;11376;50.932;4.442;2024-03-08T09:52:42;8.90;99.90
22418;DHT22;11376;50.932;4.442;2024-03-08T09:55:10;9.00;99.90
22418;DHT22;11376;50.932;4.442;2024-03-08T09:57:43;9.20;99.90
22418;DHT22;11376;50.932;4.442;2024-03-08T10:00:28;9.10;99.90
22418;DHT22;11376;50.932;4.442;2024-03-08T10:03:01;9.30;99.90
22418;DHT22;11376;50.932;4.442;2024-03-08T10:05:27;9.40;99.90
22418;DHT22;11376;50.932;4.442;2024-03-08T10:07:52;9.40;99.90
22418;DHT22;11376;50.932;4.442;2024-03-08T10:10:18;9.50;99.90
22418;DHT22;11376;50.932;4.442;2024-03-08T10:12:44;9.60;99.90
22418;DHT22;11376;50.932;4.442;2024-03-08T10:15:11;10.00;99.90
22418;DHT22;11376;50.932;4.442;2024-03-08T10:17:38;10.10;99.90
22418;DHT22;11376;50.932;4.442;2024-03-08T10:20:14;10.30;99.90
22418;DHT22;11376;50.932;4.442;2024-03-08T10:22:41;10.70;99.90
22418;DHT22;11376;50.932;4.442;2024-03-08T10:25:10;10.80;99.90
22418;DHT22;11376;50.932;4.442;2024-03-08T10:27:36;10.90;99.90
22418;DHT22;11376;50.932;4.442;2024-03-08T10:30:05;11.10;99.90
22418;DHT22;11376;50.932;4.442;2024-03-08T10:32:31;11.30;99.90
22418;DHT22;11376;50.932;4.442;2024-03-08T10:34:57;11.70;99.90
22418;DHT22;11376;50.932;4.442;2024-03-08T10:37:23;12.40;99.90
22418;DHT22;11376;50.932;4.442;2024-03-08T10:42:29;13.50;99.90
22418;DHT22;11376;50.932;4.442;2024-03-08T10:45:06;14.50;99.90
22418;DHT22;11376;50.932;4.442;2024-03-08T10:47:41;15.00;99.90
22418;DHT22;11376;50.932;4.442;2024-03-08T10:50:19;15.60;99.90
22418;DHT22;11376;50.932;4.442;2024-03-08T10:52:52;16.50;99.90
22418;DHT22;11376;50.932;4.442;2024-03-08T10:55:19;17.50;99.90
22418;DHT22;11376;50.932;4.442;2024-03-08T10:57:46;18.10;99.90
22418;DHT22;11376;50.932;4.442;2024-03-08T11:00:16;19.60;99.90
22418;DHT22;11376;50.932;4.442;2024-03-08T11:02:45;20.90;96.30
22418;DHT22;11376;50.932;4.442;2024-03-08T11:05:11;21.80;91.50
22418;DHT22;11376;50.932;4.442;2024-03-08T11:07:42;22.50;85.80
22418;DHT22;11376;50.932;4.442;2024-03-08T11:10:19;22.40;82.60
22418;DHT22;11376;50.932;4.442;2024-03-08T11:12:45;22.80;79.80
22418;DHT22;11376;50.932;4.442;2024-03-08T11:15:13;22.50;76.60
22418;DHT22;11376;50.932;4.442;2024-03-08T11:20:10;23.80;70.20
22418;DHT22;11376;50.932;4.442;2024-03-08T11:22:42;23.50;68.10
22418;DHT22;11376;50.932;4.442;2024-03-08T11:25:37;23.00;68.40
22418;DHT22;11376;50.932;4.442;2024-03-08T11:28:19;24.00;66.40
22418;DHT22;11376;50.932;4.442;2024-03-08T11:33:26;24.20;64.10
22418;DHT22;11376;50.932;4.442;2024-03-08T11:35:52;24.70;61.20
22418;DHT22;11376;50.932;4.442;2024-03-08T11:38:23;25.00;61.30
22418;DHT22;11376;50.932;4.442;2024-03-08T11:40:50;25.10;58.30
22418;DHT22;11376;50.932;4.442;2024-03-08T11:43:16;24.90;57.60
22418;DHT22;11376;50.932;4.442;2024-03-08T11:45:42;25.40;57.50
22418;DHT22;11376;50.932;4.442;2024-03-08T11:48:07;24.50;56.50
22418;DHT22;11376;50.932;4.442;2024-03-08T11:50:34;24.00;57.30
22418;DHT22;11376;50.932;4.442;2024-03-08T11:53:04;24.50;57.30
22418;DHT22;11376;50.932;4.442;2024-03-08T11:55:31;25.30;57.40
22418;DHT22;11376;50.932;4.442;2024-03-08T11:58:05;26.50;54.10
22418;DHT22;11376;50.932;4.442;2024-03-08T12:00:33;26.50;53.00
22418;DHT22;11376;50.932;4.442;2024-03-08T12:03:07;26.50;52.90
22418;DHT22;11376;50.932;4.442;2024-03-08T12:05:35;27.00;52.00
22418;DHT22;11376;50.932;4.442;2024-03-08T12:08:04;27.00;51.70
22418;DHT22;11376;50.932;4.442;2024-03-08T12:10:38;25.80;51.80
22418;DHT22;11376;50.932;4.442;2024-03-08T12:13:04;25.90;52.00
22418;DHT22;11376;50.932;4.442;2024-03-08T12:15:39;26.70;51.80
22418;DHT22;11376;50.932;4.442;2024-03-08T12:18:05;27.00;50.10
22418;DHT22;11376;50.932;4.442;2024-03-08T12:20:32;27.30;48.80
22418;DHT22;11376;50.932;4.442;2024-03-08T12:22:58;26.80;49.30
22418;DHT22;11376;50.932;4.442;2024-03-08T12:25:31;26.80;49.80
22418;DHT22;11376;50.932;4.442;2024-03-08T12:28:07;27.60;48.60
22418;DHT22;11376;50.932;4.442;2024-03-08T12:30:58;28.30;47.50
22418;DHT22;11376;50.932;4.442;2024-03-08T12:33:25;29.30;46.30
22418;DHT22;11376;50.932;4.442;2024-03-08T12:35:52;29.50;45.30
22418;DHT22;11376;50.932;4.442;2024-03-08T12:38:21;30.20;44.60
22418;DHT22;11376;50.932;4.442;2024-03-08T12:40:50;29.60;43.90
22418;DHT22;11376;50.932;4.442;2024-03-08T12:43:20;30.40;43.40
22418;DHT22;11376;50.932;4.442;2024-03-08T12:45:46;30.70;42.10
22418;DHT22;11376;50.932;4.442;2024-03-08T12:48:15;30.00;42.50
22418;DHT22;11376;50.932;4.442;2024-03-08T12:50:41;30.60;41.80
22418;DHT22;11376;50.932;4.442;2024-03-08T12:53:11;28.90;42.00
22418;DHT22;11376;50.932;4.442;2024-03-08T12:55:36;29.10;42.60
22418;DHT22;11376;50.932;4.442;2024-03-08T12:58:04;28.50;42.30
22418;DHT22;11376;50.932;4.442;2024-03-08T13:00:33;28.80;42.20
22418;DHT22;11376;50.932;4.442;2024-03-08T13:03:02;29.50;42.00
22418;DHT22;11376;50.932;4.442;2024-03-08T13:05:28;29.70;41.80
22418;DHT22;11376;50.932;4.442;2024-03-08T13:07:55;29.00;41.90
22418;DHT22;11376;50.932;4.442;2024-03-08T13:10:22;29.30;41.40
22418;DHT22;11376;50.932;4.442;2024-03-08T13:12:48;29.40;41.10
22418;DHT22;11376;50.932;4.442;2024-03-08T13:15:14;29.30;42.00
22418;DHT22;11376;50.932;4.442;2024-03-08T13:17:47;29.40;42.10
22418;DHT22;11376;50.932;4.442;2024-03-08T13:20:14;30.00;40.80
22418;DHT22;11376;50.932;4.442;2024-03-08T13:22:45;30.20;41.30
22418;DHT22;11376;50.932;4.442;2024-03-08T13:25:12;29.90;41.60
22418;DHT22;11376;50.932;4.442;2024-03-08T13:27:41;29.20;42.30
22418;DHT22;11376;50.932;4.442;2024-03-08T13:30:11;29.10;41.00
22418;DHT22;11376;50.932;4.442;2024-03-08T13:32:44;29.50;41.30
22418;DHT22;11376;50.932;4.442;2024-03-08T13:35:10;29.30;41.20
22418;DHT22;11376;50.932;4.442;2024-03-08T13:37:41;29.50;40.80
22418;DHT22;11376;50.932;4.442;2024-03-08T13:40:08;29.70;41.50
22418;DHT22;11376;50.932;4.442;2024-03-08T13:42:42;29.50;41.20
22418;DHT22;11376;50.932;4.442;2024-03-08T13:45:11;30.40;40.20
22418;DHT22;11376;50.932;4.442;2024-03-08T13:47:40;30.10;40.40
22418;DHT22;11376;50.932;4.442;2024-03-08T13:50:07;29.60;41.00
22418;DHT22;11376;50.932;4.442;2024-03-08T13:52:33;29.00;40.60
22418;DHT22;11376;50.932;4.442;2024-03-08T13:55:01;28.70;41.50
22418;DHT22;11376;50.932;4.442;2024-03-08T13:57:26;28.30;42.20
22418;DHT22;11376;50.932;4.442;2024-03-08T13:59:55;28.40;42.90
22418;DHT22;11376;50.932;4.442;2024-03-08T14:02:21;28.20;42.50
22418;DHT22;11376;50.932;4.442;2024-03-08T14:04:48;28.20;42.40
22418;DHT22;11376;50.932;4.442;2024-03-08T14:07:15;27.60;42.80
22418;DHT22;11376;50.932;4.442;2024-03-08T14:09:41;27.60;43.50
22418;DHT22;11376;50.932;4.442;2024-03-08T14:12:10;27.60;43.10
22418;DHT22;11376;50.932;4.442;2024-03-08T14:14:35;26.50;44.40
22418;DHT22;11376;50.932;4.442;2024-03-08T14:17:02;26.20;44.60
22418;DHT22;11376;50.932;4.442;2024-03-08T14:19:31;26.50;44.50
22418;DHT22;11376;50.932;4.442;2024-03-08T14:21:57;26.20;45.00
22418;DHT22;11376;50.932;4.442;2024-03-08T14:24:25;26.40;45.10
22418;DHT22;11376;50.932;4.442;2024-03-08T14:26:51;26.50;44.50
22418;DHT22;11376;50.932;4.442;2024-03-08T14:29:17;26.30;44.80
22418;DHT22;11376;50.932;4.442;2024-03-08T14:31:44;26.70;45.00
22418;DHT22;11376;50.932;4.442;2024-03-08T14:34:10;27.10;44.10
22418;DHT22;11376;50.932;4.442;2024-03-08T14:36:39;27.70;43.50
22418;DHT22;11376;50.932;4.442;2024-03-08T14:39:05;26.80;44.00
22418;DHT22;11376;50.932;4.442;2024-03-08T14:41:33;27.40;43.50
22418;DHT22;11376;50.932;4.442;2024-03-08T14:43:59;27.70;43.10
22418;DHT22;11376;50.932;4.442;2024-03-08T14:46:25;26.70;43.30
22418;DHT22;11376;50.932;4.442;2024-03-08T14:48:55;27.40;43.90
22418;DHT22;11376;50.932;4.442;2024-03-08T14:51:22;27.60;43.50
22418;DHT22;11376;50.932;4.442;2024-03-08T14:53:52;27.30;43.70
22418;DHT22;11376;50.932;4.442;2024-03-08T14:56:18;27.80;42.70
22418;DHT22;11376;50.932;4.442;2024-03-08T14:58:44;27.20;42.80
22418;DHT22;11376;50.932;4.442;2024-03-08T15:01:12;26.80;43.50
22418;DHT22;11376;50.932;4.442;2024-03-08T15:03:41;27.60;43.60
22418;DHT22;11376;50.932;4.442;2024-03-08T15:06:08;27.40;43.70
22418;DHT22;11376;50.932;4.442;2024-03-08T15:08:36;26.70;43.70
22418;DHT22;11376;50.932;4.442;2024-03-08T15:11:02;26.70;44.50
22418;DHT22;11376;50.932;4.442;2024-03-08T15:13:28;26.00;44.40
22418;DHT22;11376;50.932;4.442;2024-03-08T15:15:59;25.90;44.30
22418;DHT22;11376;50.932;4.442;2024-03-08T15:18:26;25.90;44.80
22418;DHT22;11376;50.932;4.442;2024-03-08T15:20:53;25.70;45.40
22418;DHT22;11376;50.932;4.442;2024-03-08T15:23:20;25.00;45.60
22418;DHT22;11376;50.932;4.442;2024-03-08T15:25:47;24.40;46.80
22418;DHT22;11376;50.932;4.442;2024-03-08T15:28:15;23.80;48.60
22418;DHT22;11376;50.932;4.442;2024-03-08T15:30:43;23.70;48.30
22418;DHT22;11376;50.932;4.442;2024-03-08T15:33:15;23.50;48.90
22418;DHT22;11376;50.932;4.442;2024-03-08T15:35:50;22.80;50.20
22418;DHT22;11376;50.932;4.442;2024-03-08T15:38:23;22.30;51.20
22418;DHT22;11376;50.932;4.442;2024-03-08T15:40:50;21.80;51.80
22418;DHT22;11376;50.932;4.442;2024-03-08T15:43:17;21.50;52.80
22418;DHT22;11376;50.932;4.442;2024-03-08T15:45:45;21.20;52.80
22418;DHT22;11376;50.932;4.442;2024-03-08T15:48:12;20.80;53.30
22418;DHT22;11376;50.932;4.442;2024-03-08T15:50:38;19.90;55.20